sensor_id;sensor_type;location;lat;lon;timestamp;temperature;humidity
52159;DHT22;38145;53.182;6.284;2022-10-16T00:02:18;12.40;99.90
52159;DHT22;38145;53.182;6.284;2022-10-16T00:04:44;12.40;99.90
52159;DHT22;38145;53.182;6.284;2022-10-16T00:07:10;12.50;99.90
52159;DHT22;38145;53.182;6.284;2022-10-16T00:09:36;12.50;99.90
52159;DHT22;38145;53.182;6.284;2022-10-16T00:12:02;12.40;99.90
52159;DHT22;38145;53.182;6.284;2022-10-16T00:14:30;12.30;99.90
52159;DHT22;38145;53.182;6.284;2022-10-16T00:16:56;12.20;99.90
52159;DHT22;38145;53.182;6.284;2022-10-16T00:19:22;12.30;99.90
52159;DHT22;38145;53.182;6.284;2022-10-16T00:21:48;12.20;99.90
52159;DHT22;38145;53.182;6.284;2022-10-16T00:24:14;12.20;99.90
52159;DHT22;38145;53.182;6.284;2022-10-16T00:26:40;12.20;99.90
52159;DHT22;38145;53.182;6.284;2022-10-16T00:29:06;12.30;99.90
52159;DHT22;38145;53.182;6.284;2022-10-16T00:31:32;12.20;99.90
52159;DHT22;38145;53.182;6.284;2022-10-16T00:33:58;12.40;99.90
52159;DHT22;38145;53.182;6.284;2022-10-16T00:36:24;12.10;99.90
52159;DHT22;38145;53.182;6.284;2022-10-16T00:38:51;12.20;99.90
52159;DHT22;38145;53.182;6.284;2022-10-16T00:41:20;12.40;99.90
52159;DHT22;38145;53.182;6.284;2022-10-16T00:43:48;12.40;99.90
52159;DHT22;38145;53.182;6.284;2022-10-16T00:48:40;12.10;99.90
52159;DHT22;38145;53.182;6.284;2022-10-16T00:51:06;12.30;99.90
52159;DHT22;38145;53.182;6.284;2022-10-16T00:53:33;12.20;99.90
52159;DHT22;38145;53.182;6.284;2022-10-16T00:55:59;12.40;99.90
52159;DHT22;38145;53.182;6.284;2022-10-16T00:58:25;12.50;99.90
52159;DHT22;38145;53.182;6.284;2022-10-16T01:00:51;12.50;99.90
52159;DHT22;38145;53.182;6.284;2022-10-16T01:03:22;12.50;99.90
52159;DHT22;38145;53.182;6.284;2022-10-16T01:05:49;12.50;99.90
52159;DHT22;38145;53.182;6.284;2022-10-16T01:08:22;12.30;99.90
52159;DHT22;38145;53.182;6.284;2022-10-16T01:10:57;12.20;99.90
52159;DHT22;38145;53.182;6.284;2022-10-16T01:13:25;12.50;99.90
52159;DHT22;38145;53.182;6.284;2022-10-16T01:15:54;12.20;99.90
52159;DHT22;38145;53.182;6.284;2022-10-16T01:23:45;12.50;99.90
52159;DHT22;38145;53.182;6.284;2022-10-16T01:26:24;12.30;99.90
52159;DHT22;38145;53.182;6.284;2022-10-16T01:28:54;12.30;99.90
52159;DHT22;38145;53.182;6.284;2022-10-16T01:31:24;12.30;99.90
52159;DHT22;38145;53.182;6.284;2022-10-16T01:33:52;12.50;99.90
52159;DHT22;38145;53.182;6.284;2022-10-16T01:36:21;12.40;99.90
52159;DHT22;38145;53.182;6.284;2022-10-16T01:38:51;12.50;99.90
52159;DHT22;38145;53.182;6.284;2022-10-16T01:41:21;12.40;99.90
52159;DHT22;38145;53.182;6.284;2022-10-16T01:43:57;12.40;99.90
52159;DHT22;38145;53.182;6.284;2022-10-16T01:46:26;12.50;99.90
52159;DHT22;38145;53.182;6.284;2022-10-16T01:48:54;12.40;99.90
52159;DHT22;38145;53.182;6.284;2022-10-16T01:51:21;12.60;99.90
52159;DHT22;38145;53.182;6.284;2022-10-16T01:53:49;12.50;99.90
52159;DHT22;38145;53.182;6.284;2022-10-16T01:56:16;12.50;99.90
52159;DHT22;38145;53.182;6.284;2022-10-16T01:58:45;12.60;99.90
52159;DHT22;38145;53.182;6.284;2022-10-16T02:01:13;12.70;99.90
52159;DHT22;38145;53.182;6.284;2022-10-16T02:03:40;12.70;99.90
52159;DHT22;38145;53.182;6.284;2022-10-16T02:06:08;12.60;99.90
52159;DHT22;38145;53.182;6.284;2022-10-16T02:08:34;12.60;99.90
52159;DHT22;38145;53.182;6.284;2022-10-16T02:11:01;12.70;99.90
52159;DHT22;38145;53.182;6.284;2022-10-16T02:13:30;12.60;99.90
52159;DHT22;38145;53.182;6.284;2022-10-16T02:15:58;12.60;99.90
52159;DHT22;38145;53.182;6.284;2022-10-16T02:18:24;12.70;99.90
52159;DHT22;38145;53.182;6.284;2022-10-16T02:20:55;12.80;99.90
52159;DHT22;38145;53.182;6.284;2022-10-16T02:23:24;12.60;99.90
52159;DHT22;38145;53.182;6.284;2022-10-16T02:25:53;12.70;99.90
52159;DHT22;38145;53.182;6.284;2022-10-16T02:28:22;12.60;99.90
52159;DHT22;38145;53.182;6.284;2022-10-16T02:30:50;12.60;99.90
52159;DHT22;38145;53.182;6.284;2022-10-16T02:33:19;12.70;99.90
52159;DHT22;38145;53.182;6.284;2022-10-16T02:35:46;12.60;99.90
52159;DHT22;38145;53.182;6.284;2022-10-16T02:38:13;12.80;99.90
52159;DHT22;38145;53.182;6.284;2022-10-16T02:40:40;12.60;99.90
52159;DHT22;38145;53.182;6.284;2022-10-16T02:43:06;12.70;99.90
52159;DHT22;38145;53.182;6.284;2022-10-16T02:45:32;12.60;99.90
52159;DHT22;38145;53.182;6.284;2022-10-16T02:47:58;12.50;99.90
52159;DHT22;38145;53.182;6.284;2022-10-16T02:50:24;12.50;99.90
52159;DHT22;38145;53.182;6.284;2022-10-16T02:52:50;12.60;99.90
52159;DHT22;38145;53.182;6.284;2022-10-16T02:55:17;12.50;99.90
52159;DHT22;38145;53.182;6.284;2022-10-16T02:57:43;12.60;99.90
52159;DHT22;38145;53.182;6.284;2022-10-16T03:00:09;12.60;99.90
52159;DHT22;38145;53.182;6.284;2022-10-16T03:02:36;12.40;99.90
52159;DHT22;38145;53.182;6.284;2022-10-16T03:05:02;12.50;99.90
52159;DHT22;38145;53.182;6.284;2022-10-16T03:07:28;12.40;99.90
52159;DHT22;38145;53.182;6.284;2022-10-16T03:09:54;12.40;99.90
52159;DHT22;38145;53.182;6.284;2022-10-16T03:12:20;12.30;99.90
52159;DHT22;38145;53.182;6.284;2022-10-16T03:14:47;12.40;99.90
52159;DHT22;38145;53.182;6.284;2022-10-16T03:17:13;12.50;99.90
52159;DHT22;38145;53.182;6.284;2022-10-16T03:19:42;12.30;99.90
52159;DHT22;38145;53.182;6.284;2022-10-16T03:22:07;12.40;99.90
52159;DHT22;38145;53.182;6.284;2022-10-16T03:24:34;12.30;99.90
52159;DHT22;38145;53.182;6.284;2022-10-16T03:27:00;12.30;99.90
52159;DHT22;38145;53.182;6.284;2022-10-16T03:29:26;12.40;99.90
52159;DHT22;38145;53.182;6.284;2022-10-16T03:31:55;12.40;99.90
52159;DHT22;38145;53.182;6.284;2022-10-16T03:34:24;12.20;99.90
52159;DHT22;38145;53.182;6.284;2022-10-16T03:36:50;12.40;99.90
52159;DHT22;38145;53.182;6.284;2022-10-16T03:39:18;12.30;99.90
52159;DHT22;38145;53.182;6.284;2022-10-16T03:41:44;12.40;99.90
52159;DHT22;38145;53.182;6.284;2022-10-16T03:44:12;12.20;99.90
52159;DHT22;38145;53.182;6.284;2022-10-16T03:46:38;12.40;99.90
52159;DHT22;38145;53.182;6.284;2022-10-16T03:49:04;12.30;99.90
52159;DHT22;38145;53.182;6.284;2022-10-16T03:51:30;12.40;99.90
52159;DHT22;38145;53.182;6.284;2022-10-16T03:53:56;12.20;99.90
52159;DHT22;38145;53.182;6.284;2022-10-16T03:56:22;12.40;99.90
52159;DHT22;38145;53.182;6.284;2022-10-16T03:58:48;12.30;99.90
52159;DHT22;38145;53.182;6.284;2022-10-16T04:01:14;12.30;99.90
52159;DHT22;38145;53.182;6.284;2022-10-16T04:03:40;12.10;99.90
52159;DHT22;38145;53.182;6.284;2022-10-16T04:06:06;12.30;99.90
52159;DHT22;38145;53.182;6.284;2022-10-16T04:08:32;12.20;99.90
52159;DHT22;38145;53.182;6.284;2022-10-16T04:11:00;12.20;99.90
52159;DHT22;38145;53.182;6.284;2022-10-16T04:13:27;12.10;99.90
52159;DHT22;38145;53.182;6.284;2022-10-16T04:15:53;12.30;99.90
52159;DHT22;38145;53.182;6.284;2022-10-16T04:18:18;12.10;99.90
52159;DHT22;38145;53.182;6.284;2022-10-16T04:20:44;12.30;99.90
52159;DHT22;38145;53.182;6.284;2022-10-16T04:23:10;12.30;99.90
52159;DHT22;38145;53.182;6.284;2022-10-16T04:25:36;12.10;99.90
52159;DHT22;38145;53.182;6.284;2022-10-16T04:28:02;12.30;99.90
52159;DHT22;38145;53.182;6.284;2022-10-16T04:30:28;12.30;99.90
52159;DHT22;38145;53.182;6.284;2022-10-16T04:32:54;12.30;99.90
52159;DHT22;38145;53.182;6.284;2022-10-16T04:35:21;12.20;99.90
52159;DHT22;38145;53.182;6.284;2022-10-16T04:37:49;12.40;99.90
52159;DHT22;38145;53.182;6.284;2022-10-16T04:40:15;12.40;99.90
52159;DHT22;38145;53.182;6.284;2022-10-16T04:42:41;12.40;99.90
52159;DHT22;38145;53.182;6.284;2022-10-16T04:45:07;12.40;99.90
52159;DHT22;38145;53.182;6.284;2022-10-16T04:47:33;12.30;99.90
52159;DHT22;38145;53.182;6.284;2022-10-16T04:49:59;12.20;99.90
52159;DHT22;38145;53.182;6.284;2022-10-16T04:52:28;12.20;99.90
52159;DHT22;38145;53.182;6.284;2022-10-16T04:54:54;12.50;99.90
52159;DHT22;38145;53.182;6.284;2022-10-16T04:57:21;12.30;99.90
52159;DHT22;38145;53.182;6.284;2022-10-16T04:59:47;12.30;99.90
52159;DHT22;38145;53.182;6.284;2022-10-16T05:02:13;12.30;99.90
52159;DHT22;38145;53.182;6.284;2022-10-16T05:04:39;12.50;99.90
52159;DHT22;38145;53.182;6.284;2022-10-16T05:07:06;12.30;99.90
52159;DHT22;38145;53.182;6.284;2022-10-16T05:09:32;12.40;99.90
52159;DHT22;38145;53.182;6.284;2022-10-16T05:11:58;12.30;99.90
52159;DHT22;38145;53.182;6.284;2022-10-16T05:14:24;12.30;99.90
52159;DHT22;38145;53.182;6.284;2022-10-16T05:16:50;12.40;99.90
52159;DHT22;38145;53.182;6.284;2022-10-16T05:19:17;12.40;99.90
52159;DHT22;38145;53.182;6.284;2022-10-16T05:21:43;12.40;99.90
52159;DHT22;38145;53.182;6.284;2022-10-16T05:24:09;12.50;99.90
52159;DHT22;38145;53.182;6.284;2022-10-16T05:26:35;12.50;99.90
52159;DHT22;38145;53.182;6.284;2022-10-16T05:29:01;12.30;99.90
52159;DHT22;38145;53.182;6.284;2022-10-16T05:31:28;12.50;99.90
52159;DHT22;38145;53.182;6.284;2022-10-16T05:33:58;12.60;99.90
52159;DHT22;38145;53.182;6.284;2022-10-16T05:36:24;12.30;99.90
52159;DHT22;38145;53.182;6.284;2022-10-16T05:38:51;12.60;99.90
52159;DHT22;38145;53.182;6.284;2022-10-16T05:41:18;12.60;99.90
52159;DHT22;38145;53.182;6.284;2022-10-16T05:43:48;12.60;99.90
52159;DHT22;38145;53.182;6.284;2022-10-16T05:46:14;12.30;99.90
52159;DHT22;38145;53.182;6.284;2022-10-16T05:48:40;12.50;99.90
52159;DHT22;38145;53.182;6.284;2022-10-16T05:51:07;12.50;99.90
52159;DHT22;38145;53.182;6.284;2022-10-16T05:53:33;12.20;99.90
52159;DHT22;38145;53.182;6.284;2022-10-16T05:56:00;12.30;99.90
52159;DHT22;38145;53.182;6.284;2022-10-16T05:58:31;12.40;99.90
52159;DHT22;38145;53.182;6.284;2022-10-16T06:00:58;12.30;99.90
52159;DHT22;38145;53.182;6.284;2022-10-16T06:03:25;12.50;99.90
52159;DHT22;38145;53.182;6.284;2022-10-16T06:05:51;12.50;99.90
52159;DHT22;38145;53.182;6.284;2022-10-16T06:08:17;12.20;99.90
52159;DHT22;38145;53.182;6.284;2022-10-16T06:10:43;12.10;99.90
52159;DHT22;38145;53.182;6.284;2022-10-16T06:13:10;12.40;99.90
52159;DHT22;38145;53.182;6.284;2022-10-16T06:15:36;12.40;99.90
52159;DHT22;38145;53.182;6.284;2022-10-16T06:18:02;12.50;99.90
52159;DHT22;38145;53.182;6.284;2022-10-16T06:20:27;12.30;99.90
52159;DHT22;38145;53.182;6.284;2022-10-16T06:22:53;12.50;99.90
52159;DHT22;38145;53.182;6.284;2022-10-16T06:25:19;12.50;99.90
52159;DHT22;38145;53.182;6.284;2022-10-16T06:27:46;12.60;99.90
52159;DHT22;38145;53.182;6.284;2022-10-16T06:30:11;12.30;99.90
52159;DHT22;38145;53.182;6.284;2022-10-16T06:32:37;12.30;99.90
52159;DHT22;38145;53.182;6.284;2022-10-16T06:35:03;12.40;99.90
52159;DHT22;38145;53.182;6.284;2022-10-16T06:37:29;12.70;99.90
52159;DHT22;38145;53.182;6.284;2022-10-16T06:39:56;12.60;99.90
52159;DHT22;38145;53.182;6.284;2022-10-16T06:42:22;12.70;99.90
52159;DHT22;38145;53.182;6.284;2022-10-16T06:44:48;12.40;99.90
52159;DHT22;38145;53.182;6.284;2022-10-16T06:47:14;12.70;99.90
52159;DHT22;38145;53.182;6.284;2022-10-16T06:49:40;12.80;99.90
52159;DHT22;38145;53.182;6.284;2022-10-16T06:52:06;12.80;99.90
52159;DHT22;38145;53.182;6.284;2022-10-16T06:54:32;12.70;99.90
52159;DHT22;38145;53.182;6.284;2022-10-16T06:56:58;12.80;99.90
52159;DHT22;38145;53.182;6.284;2022-10-16T06:59:25;12.80;99.90
52159;DHT22;38145;53.182;6.284;2022-10-16T07:01:51;12.70;99.90
52159;DHT22;38145;53.182;6.284;2022-10-16T07:04:17;12.80;99.90
52159;DHT22;38145;53.182;6.284;2022-10-16T07:06:43;12.50;99.90
52159;DHT22;38145;53.182;6.284;2022-10-16T07:09:09;12.60;99.90
52159;DHT22;38145;53.182;6.284;2022-10-16T07:11:36;12.60;99.90
52159;DHT22;38145;53.182;6.284;2022-10-16T07:14:03;12.70;99.90
52159;DHT22;38145;53.182;6.284;2022-10-16T07:16:30;12.60;99.90
52159;DHT22;38145;53.182;6.284;2022-10-16T07:18:57;12.90;99.90
52159;DHT22;38145;53.182;6.284;2022-10-16T07:21:25;12.80;99.90
52159;DHT22;38145;53.182;6.284;2022-10-16T07:23:52;12.90;99.90
52159;DHT22;38145;53.182;6.284;2022-10-16T07:26:18;12.60;99.90
52159;DHT22;38145;53.182;6.284;2022-10-16T07:28:44;12.60;99.90
52159;DHT22;38145;53.182;6.284;2022-10-16T07:31:11;12.60;99.90
52159;DHT22;38145;53.182;6.284;2022-10-16T07:33:39;12.60;99.90
52159;DHT22;38145;53.182;6.284;2022-10-16T07:36:05;12.90;99.90
52159;DHT22;38145;53.182;6.284;2022-10-16T07:38:32;12.60;99.90
52159;DHT22;38145;53.182;6.284;2022-10-16T07:40:58;13.00;99.90
52159;DHT22;38145;53.182;6.284;2022-10-16T07:43:25;12.90;99.90
52159;DHT22;38145;53.182;6.284;2022-10-16T07:45:51;12.70;99.90
52159;DHT22;38145;53.182;6.284;2022-10-16T07:48:18;12.60;99.90
52159;DHT22;38145;53.182;6.284;2022-10-16T07:50:44;12.50;99.90
52159;DHT22;38145;53.182;6.284;2022-10-16T07:53:10;12.70;99.90
52159;DHT22;38145;53.182;6.284;2022-10-16T07:55:37;12.50;99.90
52159;DHT22;38145;53.182;6.284;2022-10-16T07:58:03;12.50;99.90
52159;DHT22;38145;53.182;6.284;2022-10-16T08:00:30;12.50;99.90
52159;DHT22;38145;53.182;6.284;2022-10-16T08:02:57;13.00;99.90
52159;DHT22;38145;53.182;6.284;2022-10-16T08:05:26;12.80;99.90
52159;DHT22;38145;53.182;6.284;2022-10-16T08:07:52;12.90;99.90
52159;DHT22;38145;53.182;6.284;2022-10-16T08:10:19;13.10;99.90
52159;DHT22;38145;53.182;6.284;2022-10-16T08:12:45;13.10;99.90
52159;DHT22;38145;53.182;6.284;2022-10-16T08:15:11;13.50;99.90
52159;DHT22;38145;53.182;6.284;2022-10-16T08:17:37;13.70;99.90
52159;DHT22;38145;53.182;6.284;2022-10-16T08:20:03;13.80;99.90
52159;DHT22;38145;53.182;6.284;2022-10-16T08:22:29;13.70;99.90
52159;DHT22;38145;53.182;6.284;2022-10-16T08:24:55;13.70;99.90
52159;DHT22;38145;53.182;6.284;2022-10-16T08:27:21;14.00;99.90
52159;DHT22;38145;53.182;6.284;2022-10-16T08:29:48;14.00;99.90
52159;DHT22;38145;53.182;6.284;2022-10-16T08:32:14;13.90;99.90
52159;DHT22;38145;53.182;6.284;2022-10-16T08:34:39;14.20;99.90
52159;DHT22;38145;53.182;6.284;2022-10-16T08:37:05;14.20;99.90
52159;DHT22;38145;53.182;6.284;2022-10-16T08:39:33;14.30;99.90
52159;DHT22;38145;53.182;6.284;2022-10-16T08:42:04;14.20;99.90
52159;DHT22;38145;53.182;6.284;2022-10-16T08:44:39;14.20;99.90
52159;DHT22;38145;53.182;6.284;2022-10-16T08:47:18;13.90;99.90
52159;DHT22;38145;53.182;6.284;2022-10-16T08:49:55;13.90;99.90
52159;DHT22;38145;53.182;6.284;2022-10-16T08:52:22;14.10;99.90
52159;DHT22;38145;53.182;6.284;2022-10-16T08:54:49;13.80;99.90
52159;DHT22;38145;53.182;6.284;2022-10-16T08:57:19;14.10;99.90
52159;DHT22;38145;53.182;6.284;2022-10-16T08:59:45;14.30;99.90
52159;DHT22;38145;53.182;6.284;2022-10-16T09:02:23;14.10;99.90
52159;DHT22;38145;53.182;6.284;2022-10-16T09:07:29;14.50;99.90
52159;DHT22;38145;53.182;6.284;2022-10-16T09:10:03;15.00;99.90
52159;DHT22;38145;53.182;6.284;2022-10-16T09:12:37;15.20;99.90
52159;DHT22;38145;53.182;6.284;2022-10-16T09:15:14;15.20;99.90
52159;DHT22;38145;53.182;6.284;2022-10-16T09:17:44;15.30;99.90
52159;DHT22;38145;53.182;6.284;2022-10-16T09:22:45;15.70;99.90
52159;DHT22;38145;53.182;6.284;2022-10-16T09:25:13;15.60;99.90
52159;DHT22;38145;53.182;6.284;2022-10-16T09:27:39;15.60;99.90
52159;DHT22;38145;53.182;6.284;2022-10-16T09:30:12;15.80;99.90
52159;DHT22;38145;53.182;6.284;2022-10-16T09:32:39;15.90;99.90
52159;DHT22;38145;53.182;6.284;2022-10-16T09:35:09;16.00;99.90
52159;DHT22;38145;53.182;6.284;2022-10-16T09:37:37;16.30;99.90
52159;DHT22;38145;53.182;6.284;2022-10-16T09:40:03;16.10;99.90
52159;DHT22;38145;53.182;6.284;2022-10-16T09:42:31;16.40;99.90
52159;DHT22;38145;53.182;6.284;2022-10-16T09:44:58;16.30;99.90
52159;DHT22;38145;53.182;6.284;2022-10-16T09:47:24;16.40;99.90
52159;DHT22;38145;53.182;6.284;2022-10-16T09:49:58;16.50;99.90
52159;DHT22;38145;53.182;6.284;2022-10-16T09:52:28;16.60;99.90
52159;DHT22;38145;53.182;6.284;2022-10-16T09:54:55;16.70;99.90
52159;DHT22;38145;53.182;6.284;2022-10-16T09:57:22;16.80;99.90
52159;DHT22;38145;53.182;6.284;2022-10-16T09:59:49;16.90;99.90
52159;DHT22;38145;53.182;6.284;2022-10-16T10:02:16;17.00;99.90
52159;DHT22;38145;53.182;6.284;2022-10-16T10:04:48;17.10;99.90
52159;DHT22;38145;53.182;6.284;2022-10-16T10:07:17;17.20;99.90
52159;DHT22;38145;53.182;6.284;2022-10-16T10:09:44;17.30;99.90
52159;DHT22;38145;53.182;6.284;2022-10-16T10:12:17;17.50;99.90
52159;DHT22;38145;53.182;6.284;2022-10-16T10:17:12;17.70;99.90
52159;DHT22;38145;53.182;6.284;2022-10-16T10:19:40;17.60;99.90
52159;DHT22;38145;53.182;6.284;2022-10-16T10:22:16;17.50;99.90
52159;DHT22;38145;53.182;6.284;2022-10-16T10:24:44;17.50;99.90
52159;DHT22;38145;53.182;6.284;2022-10-16T10:27:12;17.50;99.90
52159;DHT22;38145;53.182;6.284;2022-10-16T10:39:49;17.50;99.90
52159;DHT22;38145;53.182;6.284;2022-10-16T10:42:25;17.60;99.90
52159;DHT22;38145;53.182;6.284;2022-10-16T10:47:26;17.80;99.90
52159;DHT22;38145;53.182;6.284;2022-10-16T10:49:57;17.80;99.90
52159;DHT22;38145;53.182;6.284;2022-10-16T10:52:41;17.80;99.90
52159;DHT22;38145;53.182;6.284;2022-10-16T11:00:21;17.60;99.90
52159;DHT22;38145;53.182;6.284;2022-10-16T11:02:57;17.80;99.90
52159;DHT22;38145;53.182;6.284;2022-10-16T11:05:38;17.90;99.90
52159;DHT22;38145;53.182;6.284;2022-10-16T11:08:18;18.00;99.90
52159;DHT22;38145;53.182;6.284;2022-10-16T11:10:50;18.10;99.90
52159;DHT22;38145;53.182;6.284;2022-10-16T11:13:30;18.10;99.90
52159;DHT22;38145;53.182;6.284;2022-10-16T11:15:58;18.00;99.90
52159;DHT22;38145;53.182;6.284;2022-10-16T11:18:30;17.90;99.90
52159;DHT22;38145;53.182;6.284;2022-10-16T11:21:00;18.00;99.90
52159;DHT22;38145;53.182;6.284;2022-10-16T11:23:29;17.90;99.90
52159;DHT22;38145;53.182;6.284;2022-10-16T11:25:57;18.10;99.90
52159;DHT22;38145;53.182;6.284;2022-10-16T11:28:27;18.10;99.90
52159;DHT22;38145;53.182;6.284;2022-10-16T11:30:57;17.80;99.90
52159;DHT22;38145;53.182;6.284;2022-10-16T11:33:39;17.20;99.90
52159;DHT22;38145;53.182;6.284;2022-10-16T11:36:12;17.00;99.90
52159;DHT22;38145;53.182;6.284;2022-10-16T11:38:49;16.80;99.90
52159;DHT22;38145;53.182;6.284;2022-10-16T11:41:20;16.70;99.90
52159;DHT22;38145;53.182;6.284;2022-10-16T11:43:52;16.70;99.90
52159;DHT22;38145;53.182;6.284;2022-10-16T11:46:22;16.60;99.90
52159;DHT22;38145;53.182;6.284;2022-10-16T11:51:17;16.70;99.90
52159;DHT22;38145;53.182;6.284;2022-10-16T11:53:52;16.60;99.90
52159;DHT22;38145;53.182;6.284;2022-10-16T11:56:19;16.60;99.90
52159;DHT22;38145;53.182;6.284;2022-10-16T11:58:56;16.50;99.90
52159;DHT22;38145;53.182;6.284;2022-10-16T12:01:29;16.40;99.90
52159;DHT22;38145;53.182;6.284;2022-10-16T12:06:26;16.70;99.90
52159;DHT22;38145;53.182;6.284;2022-10-16T12:08:53;16.90;99.90
52159;DHT22;38145;53.182;6.284;2022-10-16T12:13:45;17.10;99.90
52159;DHT22;38145;53.182;6.284;2022-10-16T12:18:40;17.10;99.90
52159;DHT22;38145;53.182;6.284;2022-10-16T12:21:06;17.20;99.90
52159;DHT22;38145;53.182;6.284;2022-10-16T12:23:36;17.30;99.90
52159;DHT22;38145;53.182;6.284;2022-10-16T12:26:03;17.20;99.90
52159;DHT22;38145;53.182;6.284;2022-10-16T12:28:30;17.10;99.90
52159;DHT22;38145;53.182;6.284;2022-10-16T12:31:02;17.00;99.90
52159;DHT22;38145;53.182;6.284;2022-10-16T12:33:29;16.90;99.90
52159;DHT22;38145;53.182;6.284;2022-10-16T12:35:55;16.70;99.90
52159;DHT22;38145;53.182;6.284;2022-10-16T12:40:58;16.40;99.90
52159;DHT22;38145;53.182;6.284;2022-10-16T12:43:26;16.30;99.90
52159;DHT22;38145;53.182;6.284;2022-10-16T12:46:01;16.20;99.90
52159;DHT22;38145;53.182;6.284;2022-10-16T12:48:27;16.20;99.90
52159;DHT22;38145;53.182;6.284;2022-10-16T12:50:53;16.20;99.90
52159;DHT22;38145;53.182;6.284;2022-10-16T12:53:21;16.10;99.90
52159;DHT22;38145;53.182;6.284;2022-10-16T12:58:18;16.10;99.90
52159;DHT22;38145;53.182;6.284;2022-10-16T13:00:53;16.10;99.90
52159;DHT22;38145;53.182;6.284;2022-10-16T13:08:39;16.10;99.90
52159;DHT22;38145;53.182;6.284;2022-10-16T13:11:19;16.10;99.90
52159;DHT22;38145;53.182;6.284;2022-10-16T13:13:51;16.10;99.90
52159;DHT22;38145;53.182;6.284;2022-10-16T13:19:00;16.30;99.90
52159;DHT22;38145;53.182;6.284;2022-10-16T13:26:28;16.40;99.90
52159;DHT22;38145;53.182;6.284;2022-10-16T13:28:58;16.40;99.90
52159;DHT22;38145;53.182;6.284;2022-10-16T13:31:26;16.30;99.90
52159;DHT22;38145;53.182;6.284;2022-10-16T13:33:54;16.30;99.90
52159;DHT22;38145;53.182;6.284;2022-10-16T13:36:23;16.30;99.90
52159;DHT22;38145;53.182;6.284;2022-10-16T13:38:59;16.20;99.90
52159;DHT22;38145;53.182;6.284;2022-10-16T13:41:25;16.20;99.90
52159;DHT22;38145;53.182;6.284;2022-10-16T13:43:52;16.30;99.90
52159;DHT22;38145;53.182;6.284;2022-10-16T13:46:20;16.30;99.90
52159;DHT22;38145;53.182;6.284;2022-10-16T13:48:59;16.40;99.90
52159;DHT22;38145;53.182;6.284;2022-10-16T13:51:25;16.40;99.90
52159;DHT22;38145;53.182;6.284;2022-10-16T13:53:51;16.40;99.90
52159;DHT22;38145;53.182;6.284;2022-10-16T13:56:19;16.50;99.90
52159;DHT22;38145;53.182;6.284;2022-10-16T13:58:45;16.50;99.90
52159;DHT22;38145;53.182;6.284;2022-10-16T14:01:16;16.50;99.90
52159;DHT22;38145;53.182;6.284;2022-10-16T14:03:43;16.60;99.90
52159;DHT22;38145;53.182;6.284;2022-10-16T14:06:12;16.60;99.90
52159;DHT22;38145;53.182;6.284;2022-10-16T14:08:42;16.70;99.90
52159;DHT22;38145;53.182;6.284;2022-10-16T14:11:08;16.70;99.90
52159;DHT22;38145;53.182;6.284;2022-10-16T14:13:37;16.70;99.90
52159;DHT22;38145;53.182;6.284;2022-10-16T14:16:05;16.70;99.90
52159;DHT22;38145;53.182;6.284;2022-10-16T14:18:32;16.70;99.90
52159;DHT22;38145;53.182;6.284;2022-10-16T14:21:03;16.70;99.90
52159;DHT22;38145;53.182;6.284;2022-10-16T14:23:32;16.70;99.90
52159;DHT22;38145;53.182;6.284;2022-10-16T14:26:06;16.60;99.90
52159;DHT22;38145;53.182;6.284;2022-10-16T14:28:40;16.60;99.90
52159;DHT22;38145;53.182;6.284;2022-10-16T14:31:23;16.50;99.90
52159;DHT22;38145;53.182;6.284;2022-10-16T14:33:50;16.40;99.90
52159;DHT22;38145;53.182;6.284;2022-10-16T14:36:17;16.40;99.90
52159;DHT22;38145;53.182;6.284;2022-10-16T14:38:49;16.40;99.90
52159;DHT22;38145;53.182;6.284;2022-10-16T14:41:20;16.30;99.90
52159;DHT22;38145;53.182;6.284;2022-10-16T14:43:49;16.30;99.90
52159;DHT22;38145;53.182;6.284;2022-10-16T14:46:20;16.20;99.90
52159;DHT22;38145;53.182;6.284;2022-10-16T14:48:47;16.10;99.90
52159;DHT22;38145;53.182;6.284;2022-10-16T14:51:16;16.00;99.90
52159;DHT22;38145;53.182;6.284;2022-10-16T14:53:42;16.00;99.90
52159;DHT22;38145;53.182;6.284;2022-10-16T14:56:08;15.90;99.90
52159;DHT22;38145;53.182;6.284;2022-10-16T14:58:40;15.90;99.90
52159;DHT22;38145;53.182;6.284;2022-10-16T15:01:07;15.90;99.90
52159;DHT22;38145;53.182;6.284;2022-10-16T15:03:34;15.80;99.90
52159;DHT22;38145;53.182;6.284;2022-10-16T15:06:00;15.80;99.90
52159;DHT22;38145;53.182;6.284;2022-10-16T15:08:26;15.80;99.90
52159;DHT22;38145;53.182;6.284;2022-10-16T15:10:52;15.70;99.90
52159;DHT22;38145;53.182;6.284;2022-10-16T15:13:18;15.80;99.90
52159;DHT22;38145;53.182;6.284;2022-10-16T15:15:45;15.80;99.90
52159;DHT22;38145;53.182;6.284;2022-10-16T15:18:17;15.70;99.90
52159;DHT22;38145;53.182;6.284;2022-10-16T15:20:47;15.70;99.90
52159;DHT22;38145;53.182;6.284;2022-10-16T15:23:15;15.70;99.90
52159;DHT22;38145;53.182;6.284;2022-10-16T15:25:43;15.60;99.90
52159;DHT22;38145;53.182;6.284;2022-10-16T15:28:09;15.60;99.90
52159;DHT22;38145;53.182;6.284;2022-10-16T15:30:36;15.60;99.90
52159;DHT22;38145;53.182;6.284;2022-10-16T15:33:03;15.60;99.90
52159;DHT22;38145;53.182;6.284;2022-10-16T15:35:29;15.60;99.90
52159;DHT22;38145;53.182;6.284;2022-10-16T15:37:55;15.60;99.90
52159;DHT22;38145;53.182;6.284;2022-10-16T15:40:21;15.60;99.90
52159;DHT22;38145;53.182;6.284;2022-10-16T15:42:48;15.50;99.90
52159;DHT22;38145;53.182;6.284;2022-10-16T15:45:14;15.50;99.90
52159;DHT22;38145;53.182;6.284;2022-10-16T15:47:41;15.40;99.90
52159;DHT22;38145;53.182;6.284;2022-10-16T15:50:07;15.40;99.90
52159;DHT22;38145;53.182;6.284;2022-10-16T15:52:33;15.40;99.90
52159;DHT22;38145;53.182;6.284;2022-10-16T15:55:00;15.40;99.90
52159;DHT22;38145;53.182;6.284;2022-10-16T15:57:28;15.30;99.90
52159;DHT22;38145;53.182;6.284;2022-10-16T15:59:55;15.20;99.90
52159;DHT22;38145;53.182;6.284;2022-10-16T16:02:21;15.30;99.90
52159;DHT22;38145;53.182;6.284;2022-10-16T16:04:47;15.20;99.90
52159;DHT22;38145;53.182;6.284;2022-10-16T16:07:13;15.20;99.90
52159;DHT22;38145;53.182;6.284;2022-10-16T16:09:39;15.10;99.90
52159;DHT22;38145;53.182;6.284;2022-10-16T16:12:05;15.10;99.90
52159;DHT22;38145;53.182;6.284;2022-10-16T16:14:32;15.00;99.90
52159;DHT22;38145;53.182;6.284;2022-10-16T16:16:58;15.00;99.90
52159;DHT22;38145;53.182;6.284;2022-10-16T16:19:24;14.90;99.90
52159;DHT22;38145;53.182;6.284;2022-10-16T16:21:52;14.80;99.90
52159;DHT22;38145;53.182;6.284;2022-10-16T16:24:18;14.80;99.90
52159;DHT22;38145;53.182;6.284;2022-10-16T16:26:45;14.80;99.90
52159;DHT22;38145;53.182;6.284;2022-10-16T16:29:11;14.60;99.90
52159;DHT22;38145;53.182;6.284;2022-10-16T16:31:38;14.60;99.90
52159;DHT22;38145;53.182;6.284;2022-10-16T16:34:04;14.50;99.90
52159;DHT22;38145;53.182;6.284;2022-10-16T16:36:30;14.50;99.90